El Paso, TX

7:48 PM MDT on August 30, 2014 (GMT -0600)
Las Cruces International | Change Station
CLOSE
Current Station
Airport
Location: Las Cruces,
Elevation: 4455 ft
Nearby Weather Stations

Elev 4455 ft 32.29 °N, 106.91 °W | Updated 13 minutes ago

Clear
Clear
89 °F
Feels Like 89 °F
N
6
Wind Variable Wind from SSW

Today
High -- | Low -- °F
--% Chance of Precip.
Yesterday
High -- | Low -- °F
Precip. -- in
6:40 AM 7:32 PM
Waxing Crescent, 26% visible
Pressure 30.01 in
Visibility 10.0 miles
Clouds Clear
Dew Point 37 °F
Humidity 16%
Rainfall 0.00 in
Snow Depth Not available.
UV 0 out of 12
Pollen 9.40 out of 12
Air Quality Not available.
Flu Activity Not available.
METAR KLRU 310135Z AUTO 21005KT 10SM CLR 32/03 A3001 RMK AO2 T03160026 PWINO

More Conditions Fewer Conditions

Pressure 30.01 in
Visibility 10.0 miles
Clouds Clear
Dew Point 37 °F
Humidity 16%
Rainfall 0.00 in
Snow Depth Not available.
UV 0 out of 12
Pollen 9.40 out of 12
Air Quality Not available.
Flu Activity Not available.
METAR KLRU 310135Z AUTO 21005KT 10SM CLR 32/03 A3001 RMK AO2 T03160026 PWINO

More Conditions Fewer Conditions

10-Day Weather Forecast

Almanac

Astronomy

Aug. 30, 2014 Rise Set
Actual Time 6:40 AM MDT 7:32 PM MDT
Civil Twilight 6:15 AM MDT 7:57 PM MDT
Nautical Twilight 5:46 AM MDT 8:27 PM MDT
Astronomical Twilight 5:15 AM MDT 8:57 PM MDT
Moon 11:11 AM MDT (8/30) 10:29 PM MDT (8/30)
Length of Visible Light 13h 42m
Length of Day
12h 52m
Tomorrow will be 1m 51s shorter.
Waxing Crescent, 26% of the Moon is Illuminated
Today
Waxing Crescent
Sep 2
First Quarter
Sep 8
Full
Sep 15
Last Quarter
Sep 24
New

Today's Extremes

State Highs State Lows

Community

WunderPhotos

Upload Photos

1,748,720 photos uploaded!

Nearby

Snow Depth

Station Depth Elevation
No new snow has been reported.

Earthquake Activity

City Distance Mag. Time & Date
No recent earthquake activity has been reported nearby.
Minimum magnitude displayed is 2.5.

Coastal Water Temperatures

Place Temperature
No Stations Reporting

Nearby Weather Stations